Date,TemperatureHighF,TemperatureAvgF,TemperatureLowF,DewpointHighF,DewpointAvgF,DewpointLowF,HumidityHigh,HumidityAvg,HumidityLow,PressureMaxIn,PressureMinIn,WindSpeedMaxMPH,WindSpeedAvgMPH,GustSpeedMaxMPH,PrecipitationSumIn
2013-1-1,33.0,26.5,20.0,32.0,23.2,15.0,98,87,78,0.00,40.00,10,6,15,0.09
2013-1-2,36.0,23.9,12.0,19.0,14.2,9.0,88,68,47,0.00,40.00,7,4,9,0.00
2013-1-3,41.0,28.9,18.0,27.0,20.3,13.0,90,71,47,0.00,40.00,9,4,14,0.00
2013-1-4,42.0,29.6,19.0,27.0,20.4,17.0,93,71,42,0.00,40.00,9,3,14,0.00
2013-1-5,43.0,35.5,26.0,30.0,24.4,17.0,79,65,51,0.00,40.00,9,6,15,0.00
2013-1-6,40.0,33.0,21.0,30.0,23.9,16.0,87,70,47,0.00,40.00,14,7,24,0.00
2013-1-7,46.0,30.0,17.0,27.0,20.7,14.0,91,71,42,0.00,40.00,12,5,17,0.00
2013-1-8,54.0,40.8,29.0,37.0,27.0,22.0,81,61,30,0.00,40.00,11,7,17,0.00
2013-1-9,59.0,48.1,42.0,47.0,39.9,35.0,96,75,43,0.00,40.00,9,5,15,0.05
2013-1-10,62.0,50.2,41.0,61.0,47.1,34.0,100,90,64,0.00,40.00,15,8,28,0.17
2013-1-11,61.0,55.0,50.0,56.0,48.1,44.0,91,78,62,0.00,40.00,16,11,24,0.18
2013-1-12,58.0,49.4,33.0,54.0,46.5,31.0,96,90,81,0.00,40.00,15,7,28,2.14
2013-1-13,32.0,26.5,20.0,30.0,23.4,15.0,96,88,80,0.00,40.00,12,10,22,1.53
2013-1-14,26.0,20.0,15.0,16.0,12.9,11.0,86,74,58,0.00,40.00,8,5,13,0.00
2013-1-15,27.0,22.0,16.0,19.0,15.9,13.0,88,77,67,0.00,40.00,9,5,15,0.00
2013-1-16,45.0,30.7,19.0,20.0,16.8,14.0,88,61,30,0.00,40.00,9,5,14,0.01
2013-1-17,43.0,34.9,28.0,29.0,22.5,17.0,77,61,38,0.00,40.00,12,7,21,0.01
2013-1-18,52.0,34.1,19.0,30.0,22.6,17.0,92,66,33,0.00,40.00,17,8,26,0.00
2013-1-19,63.0,47.6,36.0,35.0,30.6,27.0,70,54,32,0.00,40.00,17,10,26,0.00
2013-1-20,48.0,36.6,24.0,33.0,19.5,10.0,67,51,30,0.00,40.00,10,6,16,0.00
2013-1-21,31.0,23.7,19.0,14.0,6.7,-2.0,66,49,36,0.00,40.00,14,9,24,0.00
2013-1-22,25.0,19.2,15.0,6.0,-0.5,-8.0,59,42,32,0.00,40.00,7,4,12,0.00
2013-1-23,51.0,30.7,14.0,25.0,15.3,6.0,77,54,35,0.00,40.00,9,4,13,0.00
2013-1-24,31.0,24.9,17.0,19.0,8.2,1.0,64,49,30,0.00,40.00,13,10,21,0.00
2013-1-25,46.0,34.4,28.0,27.0,20.1,10.0,77,56,45,0.00,40.00,10,6,16,0.00
2013-1-26,49.0,36.9,29.0,25.0,20.1,16.0,65,51,33,0.00,40.00,8,5,14,0.00
2013-1-27,53.0,37.8,27.0,52.0,33.6,15.0,98,85,60,0.00,40.00,17,10,24,0.19
2013-1-28,69.0,59.5,53.0,63.0,57.0,52.0,96,91,75,0.00,40.00,17,12,24,0.07
2013-1-29,63.0,60.5,51.0,60.0,57.8,50.0,95,91,88,0.00,40.00,20,14,31,1.23
2013-1-30,51.0,39.6,28.0,50.0,34.0,16.0,98,81,61,0.00,40.00,22,14,31,0.13
2013-1-31,40.0,27.8,15.0,24.0,14.6,2.0,77,57,47,0.00,40.00,17,12,31,0.01
2013-2-1,31.0,19.4,8.0,10.0,2.7,-3.0,66,49,32,0.00,40.00,11,7,24,0.00
2013-2-2,46.0,33.9,25.0,26.0,20.1,11.0,76,57,43,0.00,40.00,16,10,26,0.00
2013-2-3,42.0,36.2,29.0,34.0,20.3,10.0,82,55,28,0.00,40.00,19,9,32,0.00
2013-2-4,56.0,42.6,32.0,42.0,29.1,15.0,76,59,45,0.00,40.00,17,10,26,0.01
2013-2-5,62.0,41.4,22.0,35.0,26.8,20.0,94,62,28,0.00,40.00,13,6,23,0.01
2013-2-6,57.0,40.8,24.0,32.0,28.4,21.0,92,64,31,0.00,40.00,10,5,14,0.00
2013-2-7,63.0,47.9,35.0,51.0,38.0,25.0,96,70,51,0.00,40.00,12,7,23,0.32
2013-2-8,42.0,35.4,32.0,40.0,30.8,27.0,93,83,74,0.00,40.00,13,9,21,0.18
2013-2-9,42.0,34.4,28.0,35.0,27.5,24.0,90,77,56,0.00,40.00,10,7,16,0.09
2013-2-10,55.0,47.7,38.0,54.0,41.9,26.0,99,83,38,0.00,40.00,16,10,26,0.75
2013-2-11,51.0,41.9,29.0,27.0,24.3,19.0,82,51,31,0.00,40.00,18,9,32,0.01
2013-2-12,45.0,35.1,23.0,32.0,26.9,20.0,92,73,48,0.00,40.00,6,3,11,0.00
2013-2-13,53.0,40.8,33.0,34.0,29.8,24.0,95,68,33,0.00,40.00,13,7,20,0.07
2013-2-14,58.0,46.6,36.0,34.0,28.5,25.0,71,51,31,0.00,40.00,13,8,19,0.01
2013-2-15,43.0,36.4,26.0,30.0,19.3,6.0,74,52,27,0.00,40.00,13,7,22,0.00
2013-2-16,37.0,28.1,21.0,15.0,9.4,2.0,70,48,23,0.00,40.00,11,6,19,0.00
2013-2-17,52.0,37.0,22.0,31.0,22.0,14.0,75,57,32,0.00,40.00,14,8,21,0.00
2013-2-18,52.0,45.3,36.0,49.0,39.7,30.0,95,81,66,0.00,40.00,21,15,36,0.27
2013-2-19,41.0,32.2,26.0,29.0,12.8,4.0,80,47,23,0.00,40.00,16,12,31,0.22
2013-2-20,29.0,23.9,20.0,14.0,9.7,6.0,72,54,45,0.00,40.00,8,6,13,0.00
2013-2-21,31.0,25.2,22.0,29.0,19.9,14.0,94,80,69,0.00,40.00,18,11,30,0.00
2013-2-22,34.0,31.0,25.0,32.0,26.7,20.0,98,84,67,0.00,40.00,11,6,19,0.24
2013-2-23,41.0,29.4,17.0,23.0,19.2,14.0,92,68,44,0.00,40.00,8,3,13,0.55
2013-2-24,50.0,33.9,18.0,29.0,23.3,16.0,92,68,42,0.00,40.00,9,4,12,0.03
2013-2-25,49.0,38.4,29.0,34.0,28.9,24.0,92,70,49,0.00,40.00,19,10,29,0.51
2013-2-26,45.0,37.5,34.0,42.0,34.8,30.0,99,91,74,0.00,40.00,16,10,24,0.99
2013-2-27,36.0,33.5,31.0,31.0,27.8,24.0,89,79,74,0.00,40.00,14,11,23,0.02
2013-2-28,36.0,32.2,30.0,29.0,26.5,24.0,91,79,70,0.00,40.00,12,10,20,0.01
2013-3-1,33.0,30.3,28.0,28.0,26.3,24.0,92,85,75,0.00,40.00,11,8,19,0.03
2013-3-2,31.0,27.0,23.0,25.0,19.4,14.0,87,73,54,0.00,40.00,11,8,21,0.03
2013-3-3,44.0,30.6,17.0,24.0,18.7,13.0,88,64,40,0.00,40.00,10,4,15,0.00
2013-3-4,49.0,41.7,35.0,42.0,31.1,21.0,96,67,49,0.00,40.00,15,9,26,0.00
2013-3-5,43.0,36.0,32.0,42.0,29.4,19.0,98,78,53,0.00,40.00,23,13,40,0.11
2013-3-6,41.0,31.8,24.0,24.0,20.8,18.0,85,64,50,0.00,40.00,18,9,31,0.01
2013-3-7,51.0,34.4,21.0,28.0,23.8,19.0,91,69,33,0.00,40.00,9,4,12,0.00
2013-3-8,56.0,41.0,26.0,32.0,26.4,19.0,90,61,27,0.00,40.00,10,6,17,0.00
2013-3-9,69.0,53.6,45.0,40.0,30.8,25.0,50,42,26,0.00,40.00,21,11,32,0.00
2013-3-10,59.0,58.8,58.0,39.0,38.0,37.0,48,46,44,0.00,40.00,14,14,24,0.00
2013-3-11,40.0,34.3,30.0,36.0,28.3,24.0,89,78,70,0.00,40.00,14,10,24,0.00
2013-3-12,52.0,37.0,26.0,25.0,22.6,21.0,88,60,32,0.00,40.00,16,8,28,0.00
2013-3-13,45.0,34.8,28.0,22.0,17.2,12.0,70,50,31,0.00,40.00,14,9,23,0.00
2013-3-14,55.0,37.4,22.0,34.0,24.2,19.0,87,61,36,0.00,40.00,15,7,23,0.00
2013-3-15,80.0,56.9,31.0,46.0,38.1,29.0,93,57,24,0.00,40.00,13,5,20,0.00
2013-3-16,65.0,55.1,39.0,46.0,41.3,35.0,86,61,46,0.00,40.00,11,10,21,0.07
2013-3-17,37.0,34.9,33.0,35.0,33.3,31.0,95,94,92,0.00,40.00,14,10,26,3.24
2013-3-18,49.0,41.7,37.0,39.0,36.0,28.0,98,82,54,0.00,40.00,14,7,26,1.41
2013-3-19,49.0,39.6,29.0,28.0,18.0,12.0,62,44,23,0.00,40.00,11,6,17,0.00
2013-3-20,41.0,34.5,27.0,32.0,19.1,8.0,89,56,27,0.00,40.00,16,9,31,0.00
2013-3-21,41.0,30.1,18.0,18.0,12.6,8.0,76,50,33,0.00,40.00,8,4,12,0.00
2013-3-22,39.0,34.5,30.0,28.0,25.9,20.0,92,71,55,0.00,40.00,9,5,13,0.01
2013-3-23,53.0,43.0,36.0,40.0,29.2,23.0,91,59,46,0.00,40.00,14,8,21,0.04
2013-3-24,42.0,34.2,29.0,39.0,32.0,26.0,97,92,83,0.00,40.00,18,12,31,0.25
2013-3-25,35.0,30.1,27.0,30.0,25.7,23.0,93,83,70,0.00,40.00,16,12,25,0.01
2013-3-26,42.0,33.8,27.0,28.0,23.0,19.0,84,66,45,0.00,40.00,12,8,19,0.02
2013-3-27,53.0,34.5,21.0,28.0,22.2,19.0,92,68,29,0.00,40.00,7,3,14,0.01
2013-3-28,60.0,54.6,49.0,34.0,32.6,30.0,56,44,35,0.00,40.00,11,8,19,0.03
2013-3-29,60.0,49.1,44.0,51.0,44.3,32.0,97,85,58,0.00,40.00,8,4,12,0.26
2013-3-30,53.0,45.0,36.0,48.0,41.4,-99.9,99,93,67,0.00,40.00,9,4,15,0.23
2013-3-31,68.0,60.1,48.0,55.0,38.3,28.0,99,49,25,0.00,40.00,12,6,19,0.11
2013-4-1,53.0,46.4,40.0,39.0,26.2,16.0,63,46,29,0.00,40.00,10,7,18,0.00
2013-4-2,49.0,38.9,30.0,21.0,17.9,14.0,60,44,24,0.00,40.00,7,5,13,0.00
2013-4-3,53.0,40.6,29.0,25.0,21.5,18.0,83,49,29,0.00,40.00,13,6,19,0.00
2013-4-4,60.0,45.5,27.0,26.0,22.3,18.0,87,44,22,0.00,40.00,10,5,16,0.00
2013-4-5,70.0,52.1,31.0,39.0,32.8,25.0,86,52,28,0.00,40.00,8,4,15,0.00
2013-4-6,72.0,60.6,48.0,41.0,37.1,32.0,60,43,25,0.00,40.00,22,14,37,0.00
2013-4-7,77.0,65.7,55.0,56.0,48.5,41.0,70,55,35,0.00,40.00,19,9,27,0.00
2013-4-8,74.0,66.1,60.0,58.0,55.0,51.0,76,68,54,0.00,40.00,16,12,25,0.00
2013-4-9,79.0,68.5,59.0,62.0,58.0,54.0,84,70,50,0.00,40.00,17,10,29,0.00
2013-4-10,81.0,71.9,60.0,67.0,63.9,59.0,97,77,59,0.00,40.00,18,11,42,1.32
2013-4-11,62.0,47.5,40.0,61.0,40.8,30.0,95,79,55,0.00,40.00,14,9,22,1.29
2013-4-12,54.0,43.1,35.0,33.0,29.9,28.0,78,61,40,0.00,40.00,15,7,25,0.00
2013-4-13,67.0,48.9,31.0,41.0,34.3,29.0,94,62,32,0.00,40.00,12,5,17,0.00
2013-4-14,76.0,62.0,49.0,54.0,45.9,38.0,71,57,33,0.00,40.00,22,13,34,0.00
2013-4-15,76.0,65.2,58.0,64.0,57.1,52.0,89,75,60,0.00,40.00,15,10,24,0.00
2013-4-16,67.0,53.0,48.0,61.0,50.1,46.0,98,90,80,0.00,40.00,11,7,20,0.00
2013-4-17,84.0,64.4,48.0,68.0,57.5,48.0,100,82,46,0.00,40.00,20,10,31,0.00
2013-4-18,74.0,61.6,41.0,67.0,56.7,33.0,95,84,71,0.00,40.00,20,15,35,1.77
2013-4-19,53.0,42.9,38.0,31.0,25.6,19.0,71,53,27,0.00,40.00,17,12,29,0.15
2013-4-20,61.0,46.2,30.0,34.0,30.0,28.0,94,58,29,0.00,40.00,9,4,14,0.00
2013-4-21,66.0,51.9,40.0,38.0,34.7,31.0,75,54,35,0.00,40.00,10,6,15,0.00
2013-4-22,72.0,57.2,38.0,45.0,38.8,31.0,89,54,29,0.00,40.00,15,6,24,0.00
2013-4-23,63.0,55.5,40.0,59.0,49.0,38.0,95,80,58,0.00,40.00,11,6,20,0.36
2013-4-24,55.0,43.8,38.0,37.0,32.3,25.0,93,68,34,0.00,40.00,16,8,25,0.76
2013-4-25,68.0,50.5,33.0,39.0,33.2,27.0,94,56,28,0.00,40.00,12,6,20,0.04
2013-4-26,52.0,50.6,49.0,47.0,41.6,38.0,91,72,63,0.00,40.00,8,4,18,0.10
2013-4-28,63.0,56.6,48.0,53.0,49.7,47.0,95,78,64,0.00,40.00,10,5,16,0.00
2013-4-29,78.0,61.1,46.0,59.0,52.9,45.0,99,78,48,0.00,40.00,13,8,20,0.00
2013-4-30,83.0,72.6,59.0,60.0,53.5,50.0,85,55,34,0.00,40.00,14,9,25,0.00
2013-5-1,81.0,67.8,51.0,61.0,56.4,50.0,97,70,45,0.00,40.00,12,4,24,0.00
2013-5-2,80.0,61.7,45.0,63.0,54.6,43.0,98,81,43,0.00,40.00,12,5,21,0.33
2013-5-3,44.0,39.8,38.0,42.0,37.9,36.0,95,94,93,0.00,40.00,10,8,18,2.62
2013-5-4,49.0,42.0,35.0,37.0,35.5,33.0,96,79,58,0.00,40.00,8,5,13,0.10
2013-5-5,55.0,45.8,33.0,54.0,44.7,32.0,98,96,93,0.00,40.00,10,5,17,0.25
2013-5-6,65.0,62.9,59.0,55.0,52.8,51.0,83,70,61,0.00,40.00,12,8,21,0.13
2013-5-7,74.0,63.2,50.0,58.0,53.1,49.0,97,72,47,0.00,40.00,7,3,12,0.00
2013-5-8,81.0,65.1,48.0,63.0,53.4,47.0,98,71,34,0.00,40.00,9,2,15,0.00
2013-5-9,80.0,68.2,59.0,64.0,57.8,52.0,94,72,40,0.00,40.00,18,7,29,0.06
2013-5-10,74.0,65.8,58.0,61.0,56.7,52.0,90,73,58,0.00,40.00,11,7,21,0.04
2013-5-11,70.0,59.7,52.0,53.0,43.4,-99.9,87,60,30,0.00,40.00,14,8,23,0.00
2013-5-12,64.0,52.1,38.0,37.0,29.3,24.0,79,46,24,0.00,40.00,11,6,21,0.00
2013-5-13,74.0,55.4,34.0,42.0,37.9,33.0,95,59,29,0.00,40.00,10,4,18,0.00
2013-5-14,92.0,73.4,54.0,57.0,49.4,43.0,84,48,21,0.00,40.00,14,8,24,0.00
2013-5-15,87.0,75.5,66.0,64.0,56.7,50.0,78,53,39,0.00,40.00,12,9,20,0.00
2013-5-16,77.0,62.3,60.0,65.0,40.4,-99.9,90,75,48,0.00,40.00,11,6,17,0.03
2013-5-17,74.0,65.8,61.0,65.0,56.1,-99.9,96,85,68,0.00,40.00,8,4,12,0.01
2013-5-18,83.0,70.7,61.0,68.0,64.3,61.0,100,82,55,0.00,40.00,8,4,14,0.01
2013-5-19,88.0,78.0,68.0,75.0,67.7,61.0,93,72,47,0.00,40.00,16,8,26,0.00
2013-5-20,80.0,74.1,65.0,71.0,66.0,57.0,86,76,71,0.00,40.00,14,9,23,0.07
2013-5-21,75.0,66.1,62.0,66.0,61.6,60.0,96,86,65,0.00,40.00,12,8,38,1.30
2013-5-22,75.0,67.4,60.0,62.0,57.1,53.0,96,72,49,0.00,40.00,13,8,21,0.01
2013-5-23,70.0,61.9,56.0,55.0,53.0,51.0,91,73,59,0.00,40.00,11,7,20,0.00
2013-5-24,70.0,57.9,45.0,51.0,41.4,34.0,94,60,30,0.00,40.00,7,5,14,0.00
2013-5-25,75.0,60.4,44.0,55.0,48.8,38.0,94,68,48,0.00,40.00,12,5,19,0.00
2013-5-26,83.0,70.3,54.0,66.0,58.2,50.0,91,67,53,0.00,40.00,12,7,20,0.00
2013-5-27,83.0,72.5,63.0,69.0,61.3,53.0,79,68,55,0.00,40.00,16,9,25,0.00
2013-5-28,86.0,75.8,69.0,67.0,63.7,61.0,81,67,48,0.00,40.00,21,12,31,0.00
2013-5-29,85.0,76.7,67.0,67.0,62.3,57.0,77,62,44,0.00,40.00,18,12,28,0.00
2013-5-30,84.0,74.3,67.0,72.0,66.8,62.0,94,78,59,0.00,40.00,18,12,32,0.28
2013-5-31,76.0,70.6,64.0,72.0,67.5,62.0,97,90,76,0.00,40.00,15,10,31,1.90
2013-6-1,74.0,67.4,63.0,67.0,63.4,57.0,98,88,72,0.00,40.00,15,8,24,1.42
2013-6-2,68.0,62.9,56.0,59.0,56.2,54.0,96,79,67,0.00,40.00,10,5,17,0.01
2013-6-3,73.0,62.5,54.0,57.0,52.8,50.0,96,73,49,0.00,40.00,6,4,13,0.00
2013-6-4,78.0,64.2,49.0,60.0,55.0,48.0,97,75,50,0.00,40.00,10,4,15,0.00
2013-6-5,81.0,69.2,56.0,64.0,60.1,55.0,97,75,49,0.00,40.00,8,3,15,0.00
2013-6-6,79.0,69.4,63.0,64.0,59.6,54.0,91,72,52,0.00,40.00,10,6,17,0.00
2013-6-7,74.0,65.9,58.0,58.0,54.9,52.0,90,69,54,0.00,40.00,11,7,18,0.00
2013-6-8,80.0,67.0,52.0,62.0,55.2,51.0,97,70,42,0.00,40.00,8,3,15,0.00
2013-6-9,78.0,66.5,60.0,66.0,60.0,56.0,97,80,60,0.00,40.00,12,5,26,0.45
2013-6-10,81.0,71.5,60.0,64.0,61.1,58.0,96,72,52,0.00,40.00,12,5,21,0.25
2013-6-11,94.0,76.9,60.0,71.0,66.2,59.0,98,73,46,0.00,40.00,10,5,16,0.00
2013-6-12,92.0,83.3,72.0,74.0,70.0,65.0,87,66,51,0.00,40.00,17,10,27,0.00
2013-6-13,83.0,76.5,70.0,69.0,64.2,60.0,73,66,53,0.00,40.00,13,8,24,0.00
2013-6-14,85.0,71.7,58.0,63.0,60.0,57.0,97,70,43,0.00,40.00,9,3,16,0.00
2013-6-15,86.0,74.0,62.0,67.0,63.5,59.0,91,71,51,0.00,40.00,12,5,21,0.00
2013-6-16,85.0,75.1,68.0,72.0,68.2,64.0,90,79,61,0.00,40.00,9,4,16,0.01
2013-6-17,88.0,72.9,65.0,74.0,68.6,60.0,96,87,62,0.00,40.00,12,3,20,0.90
2013-6-18,87.0,73.5,59.0,69.0,63.7,58.0,98,75,42,0.00,40.00,8,4,14,0.29
2013-6-19,87.0,74.9,63.0,68.0,63.9,62.0,96,71,45,0.00,40.00,6,3,13,0.01
2013-6-20,87.0,74.1,63.0,70.0,66.2,62.0,98,79,53,0.00,40.00,10,3,15,0.00
2013-6-22,88.0,78.0,66.0,73.0,68.4,63.0,95,74,55,0.00,40.00,14,10,27,0.96
2013-6-23,88.0,75.3,67.0,72.0,67.6,58.0,95,79,59,0.00,40.00,13,7,27,0.96
2013-6-24,90.0,78.5,66.0,74.0,69.3,64.0,96,76,53,0.00,40.00,12,6,16,0.10
2013-6-25,91.0,82.1,74.0,73.0,71.1,69.0,86,71,54,0.00,40.00,13,9,22,0.01
2013-6-26,91.0,81.4,74.0,75.0,72.2,68.0,87,74,59,0.00,40.00,14,9,24,0.00
2013-6-27,93.0,82.9,73.0,73.0,67.6,64.0,79,62,38,0.00,40.00,10,6,16,0.00
2013-6-28,88.0,79.1,73.0,72.0,64.7,56.0,93,64,38,0.00,40.00,12,6,26,0.02
2013-6-29,82.0,72.3,64.0,62.0,58.8,55.0,91,64,46,0.00,40.00,13,8,33,0.23
2013-6-30,75.0,67.4,63.0,65.0,61.7,60.0,93,82,67,0.00,40.00,10,7,22,0.23
2013-7-1,77.0,67.5,63.0,62.0,59.4,52.0,93,77,48,0.00,40.00,12,7,25,0.03
2013-7-2,66.0,62.8,61.0,62.0,58.3,53.0,93,86,73,0.00,40.00,10,6,21,0.23
2013-7-3,82.0,70.3,60.0,60.0,57.5,55.0,92,67,41,0.00,40.00,8,3,12,0.01
2013-7-4,83.0,71.4,57.0,64.0,59.2,55.0,96,69,41,0.00,40.00,8,3,16,0.00
2013-7-5,84.0,72.5,61.0,71.0,64.6,60.0,98,78,51,0.00,40.00,9,4,15,0.00
2013-7-6,84.0,71.4,64.0,71.0,64.9,59.0,97,82,48,0.00,40.00,8,3,13,0.00
2013-7-7,91.0,77.2,63.0,71.0,65.6,61.0,92,71,38,0.00,40.00,8,5,16,0.00
2013-7-8,92.0,78.7,68.0,72.0,68.8,66.0,94,74,47,0.00,40.00,11,6,16,0.00
2013-7-9,93.0,86.9,75.0,74.0,71.4,68.0,81,61,48,0.00,40.00,10,6,16,0.00
2013-7-10,86.0,77.4,72.0,75.0,68.5,-99.9,93,79,64,0.00,40.00,11,5,19,0.14
2013-7-11,83.0,76.0,67.0,73.0,64.3,57.0,91,69,44,0.00,40.00,11,6,19,0.03
2013-7-12,83.0,70.8,55.0,62.0,56.7,54.0,96,66,37,0.00,40.00,10,4,16,0.00
2013-7-13,84.0,71.7,56.0,67.0,58.4,55.0,96,67,40,0.00,40.00,9,3,16,0.00
2013-7-14,87.0,73.6,60.0,70.0,65.1,59.0,96,77,54,0.00,40.00,11,5,19,0.10
2013-7-15,88.0,78.2,70.0,74.0,70.4,68.0,96,78,57,0.00,40.00,12,6,20,0.10
2013-7-16,90.0,85.9,77.0,71.0,69.2,68.0,81,59,49,0.00,40.00,8,6,15,0.00
2013-7-17,94.0,81.4,69.0,75.0,70.6,67.0,96,73,45,0.00,40.00,6,2,12,0.00
2013-7-18,94.0,81.9,69.0,77.0,70.7,65.0,97,72,44,0.00,40.00,11,3,15,0.00
2013-7-19,95.0,81.0,69.0,72.0,68.8,66.0,94,70,41,0.00,40.00,9,4,14,0.00
2013-7-20,94.0,76.2,70.0,73.0,67.5,-99.9,94,78,45,0.00,40.00,13,5,27,0.50
2013-7-21,85.0,74.3,69.0,77.0,70.0,68.0,96,88,65,0.00,40.00,5,2,12,0.32
2013-7-22,91.0,78.6,68.0,73.0,70.2,67.0,97,78,50,0.00,40.00,7,4,12,0.16
2013-7-23,92.0,79.1,68.0,75.0,69.3,59.0,93,74,51,0.00,40.00,13,5,32,0.04
2013-7-24,81.0,72.3,66.0,65.0,60.3,53.0,94,69,40,0.00,40.00,12,6,16,0.04
2013-7-25,82.0,69.0,55.0,62.0,56.8,54.0,100,69,43,0.00,40.00,6,2,15,0.00
2013-7-26,76.0,68.6,60.0,69.0,63.8,58.0,97,86,61,0.00,40.00,9,4,14,0.02
2013-7-27,78.0,70.2,58.0,68.0,59.3,49.0,99,71,43,0.00,40.00,10,4,17,0.01
2013-7-28,77.0,65.5,50.0,59.0,54.5,50.0,100,72,43,0.00,40.00,10,4,16,0.00
2013-7-29,78.0,67.2,58.0,65.0,60.9,57.0,99,82,59,0.00,40.00,7,2,14,0.00
2013-7-30,75.0,69.9,65.0,73.0,66.9,58.0,99,91,71,0.00,40.00,8,6,13,0.28
2013-7-31,86.0,76.3,70.0,73.0,70.5,67.0,100,84,62,0.00,40.00,9,4,15,0.03
2013-8-1,87.0,74.6,65.0,67.0,64.3,62.0,96,74,43,0.00,40.00,8,4,19,0.00
2013-8-2,84.0,73.0,64.0,71.0,67.0,63.0,100,83,56,0.00,40.00,12,5,19,0.00
2013-8-3,85.0,75.0,69.0,74.0,69.9,67.0,97,85,63,0.00,40.00,9,4,17,0.37
2013-8-4,82.0,72.5,64.0,68.0,63.3,61.0,100,75,50,0.00,40.00,7,4,13,0.08
2013-8-5,71.0,68.0,64.0,70.0,65.3,60.0,100,91,79,0.00,40.00,9,5,15,0.56
2013-8-6,84.0,75.1,70.0,74.0,71.3,68.0,100,89,70,0.00,40.00,8,5,19,0.03
2013-8-7,84.0,75.0,69.0,73.0,70.7,67.0,99,88,67,0.00,40.00,10,5,33,0.83
2013-8-8,83.0,74.2,68.0,75.0,70.5,68.0,100,89,66,0.00,40.00,7,2,11,0.35
2013-8-9,77.0,72.6,69.0,72.0,70.2,66.0,100,92,68,0.00,40.00,7,2,11,0.91
2013-8-10,84.0,75.4,67.0,72.0,67.5,64.0,100,78,51,0.00,40.00,7,4,11,0.10
2013-8-11,87.0,75.1,64.0,71.0,66.2,60.0,96,75,56,0.00,40.00,6,3,10,0.00
2013-8-12,87.0,74.9,69.0,76.0,70.9,68.0,100,88,70,0.00,40.00,7,2,33,0.03
2013-8-13,81.0,72.1,66.0,70.0,61.9,-99.9,100,75,47,0.00,40.00,10,5,16,0.03
2013-8-14,73.0,64.0,56.0,59.0,52.5,48.0,93,68,47,0.00,40.00,10,6,18,0.00
2013-8-15,75.0,57.6,49.0,56.0,43.9,-99.9,100,74,47,0.00,40.00,8,3,12,0.00
2013-8-16,76.0,63.0,51.0,60.0,52.2,-99.9,100,75,55,0.00,40.00,7,3,15,0.00
2013-8-17,79.0,69.2,60.0,64.0,57.3,-99.9,89,69,53,0.00,40.00,9,6,17,0.00
2013-8-18,80.0,69.8,59.0,67.0,62.6,58.0,100,80,55,0.00,40.00,10,3,15,0.00
2013-8-19,87.0,68.2,58.0,68.0,52.6,-99.9,100,76,44,0.00,40.00,6,2,10,0.00
2013-8-20,87.0,73.8,61.0,71.0,63.1,-99.9,100,76,47,0.00,40.00,7,2,11,0.00
2013-8-21,88.0,75.7,62.0,71.0,66.3,62.0,100,76,44,0.00,40.00,7,2,12,0.00
2013-8-22,90.0,79.8,67.0,73.0,68.9,66.0,100,73,48,0.00,40.00,8,3,14,0.00
2013-8-23,89.0,78.1,67.0,75.0,70.4,67.0,99,79,56,0.00,40.00,8,3,12,0.00
2013-8-24,90.0,76.5,64.0,72.0,64.6,-99.9,100,72,46,0.00,40.00,8,3,12,0.00
2013-8-25,90.0,76.6,62.0,72.0,67.0,62.0,100,76,44,0.00,40.00,7,3,11,0.00
2013-8-26,92.0,80.2,71.0,74.0,71.3,67.0,100,77,49,0.00,40.00,9,4,14,0.00
2013-8-27,89.0,78.6,70.0,73.0,70.8,68.0,96,79,56,0.00,40.00,5,4,10,0.00
2013-8-28,91.0,84.6,72.0,71.0,66.7,64.0,96,58,43,0.00,40.00,8,4,16,0.00
2013-8-29,94.0,80.6,67.0,73.0,68.6,65.0,99,71,41,0.00,40.00,6,2,11,0.00
2013-8-30,97.0,80.7,67.0,75.0,69.8,66.0,99,74,40,0.00,40.00,11,3,17,0.00
2013-8-31,97.0,84.2,73.0,75.0,69.4,-99.9,93,66,39,0.00,40.00,11,4,17,0.00
2013-9-1,89.0,79.8,70.0,74.0,69.3,65.0,94,72,55,0.00,40.00,18,5,29,0.06
2013-9-2,89.0,76.1,68.0,69.0,62.6,57.0,99,68,36,0.00,40.00,8,4,17,0.01
2013-9-3,86.0,70.1,57.0,63.0,55.2,47.0,99,66,27,0.00,40.00,7,2,15,0.00
2013-9-4,90.0,69.0,54.0,63.0,56.5,53.0,99,71,32,0.00,40.00,7,2,13,0.00
2013-9-5,87.0,70.7,55.0,65.0,58.7,55.0,99,70,37,0.00,40.00,7,2,13,0.00
2013-9-6,89.0,72.5,59.0,65.0,61.7,58.0,99,73,39,0.00,40.00,7,3,13,0.00
2013-9-7,91.0,73.9,59.0,68.0,61.5,-99.9,100,71,38,0.00,40.00,9,4,17,0.00
2013-9-8,82.0,74.3,69.0,73.0,68.4,65.0,95,82,70,0.00,40.00,6,2,12,0.01
2013-9-9,98.0,81.9,70.0,74.0,68.6,64.0,98,70,33,0.00,40.00,11,2,16,0.01
2013-9-10,97.0,82.6,72.0,70.0,65.4,58.0,92,62,28,0.00,40.00,9,3,17,0.00
2013-9-11,96.0,80.1,68.0,72.0,67.0,60.0,98,68,37,0.00,40.00,9,4,15,0.00
2013-9-12,87.0,76.3,68.0,71.0,65.6,54.0,97,72,36,0.00,40.00,11,4,18,0.06
2013-9-13,75.0,67.0,58.0,55.0,47.5,42.0,71,51,37,0.00,40.00,11,6,20,0.06
2013-9-14,78.0,59.9,45.0,50.0,42.0,-99.9,96,58,26,0.00,40.00,7,2,15,0.00
2013-9-15,86.0,64.5,47.0,58.0,50.6,43.0,91,65,34,0.00,40.00,8,3,14,0.00
2013-9-16,67.0,64.6,61.0,65.0,60.3,56.0,97,86,74,0.00,40.00,9,4,17,0.54
2013-9-17,78.0,67.4,59.0,65.0,61.1,56.0,95,81,56,0.00,40.00,6,3,9,0.01
2013-9-18,73.0,68.2,67.0,69.0,64.9,64.0,93,89,83,0.00,40.00,4,2,6,0.27
2013-9-19,87.0,77.4,70.0,74.0,70.6,67.0,95,81,61,0.00,40.00,13,8,18,0.16
2013-9-20,75.0,69.9,61.0,71.0,67.0,58.0,98,91,80,0.00,40.00,9,4,18,0.34
2013-9-21,73.0,61.1,51.0,57.0,49.5,-99.9,97,71,40,0.00,40.00,9,5,17,0.02
2013-9-22,77.0,59.1,45.0,55.0,49.0,45.0,99,74,37,0.00,40.00,6,2,12,0.00
2013-9-23,77.0,60.7,45.0,56.0,49.8,44.0,99,71,39,0.00,40.00,9,4,17,0.00
2013-9-24,81.0,65.1,51.0,66.0,58.5,50.0,98,82,55,0.00,40.00,11,4,17,0.00
2013-9-25,83.0,69.1,64.0,67.0,64.3,62.0,100,87,54,0.00,40.00,7,2,12,0.13
2013-9-26,83.0,69.0,57.0,68.0,61.1,57.0,100,79,45,0.00,40.00,6,2,11,0.00
2013-9-27,82.0,68.1,56.0,66.0,59.5,56.0,100,77,46,0.00,40.00,9,3,14,0.00
2013-9-28,82.0,69.7,57.0,64.0,58.5,-99.9,97,71,51,0.00,40.00,17,8,27,0.00
2013-9-29,75.0,65.2,56.0,66.0,58.4,52.0,98,81,47,0.00,40.00,7,4,15,0.54
2013-9-30,75.0,65.8,57.0,65.0,61.5,56.0,100,87,59,0.00,40.00,10,4,17,0.01
2013-10-1,70.0,68.6,68.0,68.0,67.3,67.0,98,96,92,0.00,40.00,0,-999,0,0.00
2013-10-2,81.0,70.9,69.0,71.0,68.7,67.0,99,93,71,0.00,40.00,0,-999,0,0.03
2013-10-3,82.0,72.9,67.0,70.0,67.7,65.0,95,84,65,0.00,40.00,0,-999,0,0.03
2013-10-4,83.0,74.0,68.0,70.0,68.7,67.0,97,85,62,0.00,40.00,0,-999,0,0.00
2013-10-5,78.0,70.7,55.0,71.0,67.3,49.0,97,89,69,0.00,40.00,0,-999,0,0.23
2013-10-6,60.0,53.3,46.0,51.0,43.2,38.0,88,70,47,0.00,40.00,0,-999,0,0.24
2013-10-7,69.0,55.4,47.0,49.0,45.0,42.0,98,71,41,0.00,40.00,0,-999,0,0.00
2013-10-8,72.0,56.2,42.0,51.0,45.3,41.0,98,72,39,0.00,40.00,0,-999,0,0.00
2013-10-9,76.0,58.3,40.0,56.0,49.0,39.0,99,75,46,0.00,40.00,0,-999,0,0.00
2013-10-10,78.0,64.9,50.0,63.0,56.0,49.0,99,76,48,0.00,40.00,0,-999,0,0.00
2013-10-11,76.0,62.4,48.0,61.0,55.1,48.0,100,80,50,0.00,40.00,0,-999,0,0.00
2013-10-12,76.0,64.8,58.0,65.0,58.9,50.0,99,82,57,0.00,40.00,0,-999,0,1.28
2013-10-13,73.0,58.5,45.0,51.0,42.8,37.0,96,62,28,0.00,40.00,0,-999,0,0.93
2013-10-14,67.0,56.1,46.0,54.0,46.9,39.0,96,73,50,0.00,40.00,0,-999,0,0.00
2013-10-15,66.0,62.5,57.0,65.0,60.3,52.0,97,92,84,0.00,40.00,0,-999,0,0.59
2013-10-16,62.0,54.2,46.0,52.0,44.0,41.0,94,70,49,0.00,40.00,0,-999,0,0.09
2013-10-17,63.0,52.5,43.0,48.0,43.8,39.0,97,75,42,0.00,40.00,0,-999,0,0.01
2013-10-18,65.0,50.8,38.0,46.0,41.8,37.0,98,74,48,0.00,40.00,0,-999,0,0.04
2013-10-19,58.0,47.1,40.0,43.0,37.3,31.0,95,72,39,0.00,40.00,0,-999,0,0.21
2013-10-20,67.0,51.1,39.0,43.0,39.2,35.0,88,67,37,0.00,40.00,0,-999,0,0.03
2013-10-21,56.0,50.7,39.0,48.0,42.8,35.0,89,75,65,0.00,40.00,0,-999,0,0.00
2013-10-22,60.0,46.9,31.0,43.0,36.9,30.0,97,71,47,0.00,40.00,0,-999,0,0.00
2013-10-23,51.0,44.3,38.0,35.0,31.3,27.0,84,62,41,0.00,40.00,0,-999,0,0.00
2013-10-24,51.0,42.2,34.0,36.0,28.0,21.0,84,60,33,0.00,40.00,0,-999,0,0.00
2013-10-25,55.0,38.7,24.0,29.0,24.6,22.0,93,62,28,0.00,40.00,0,-999,0,0.00
2013-10-26,67.0,50.4,37.0,45.0,34.7,27.0,66,55,45,0.00,40.00,0,-999,0,0.00
2013-10-27,65.0,45.7,30.0,35.0,30.8,28.0,95,62,25,0.00,40.00,0,-999,0,0.00
2013-10-28,70.0,50.1,31.0,49.0,37.6,29.0,96,68,33,0.00,40.00,0,-999,0,0.00
2013-10-29,61.0,52.2,41.0,60.0,50.9,40.0,99,95,90,0.00,40.00,0,-999,0,1.73
2013-10-30,73.0,65.8,60.0,65.0,62.6,60.0,99,90,68,0.00,40.00,0,-999,0,1.23
2013-10-31,70.0,62.8,51.0,64.0,60.0,47.0,98,90,81,0.00,40.00,0,-999,0,0.61
2013-11-1,65.0,53.3,46.0,46.0,42.3,38.0,92,69,38,0.00,40.00,0,-999,0,0.28
2013-11-2,52.0,46.6,36.0,41.0,37.2,33.0,94,71,48,0.00,40.00,0,-999,0,0.00
2013-11-3,59.0,44.2,30.0,40.0,32.0,29.0,98,68,35,0.00,40.00,0,-999,0,0.00
2013-11-4,56.0,50.7,46.0,47.0,39.4,33.0,91,66,59,0.00,40.00,0,-999,0,0.00
2013-11-5,62.0,54.2,49.0,51.0,48.9,47.0,97,83,66,0.00,40.00,0,-999,0,0.17
2013-11-6,59.0,49.5,38.0,56.0,46.7,34.0,95,90,78,0.00,40.00,0,-999,0,0.43
2013-11-7,57.0,43.5,31.0,35.0,32.6,30.0,96,69,37,0.00,40.00,0,-999,0,0.02
2013-11-8,60.0,44.8,28.0,35.0,30.3,27.0,96,62,29,0.00,40.00,0,-999,0,0.00
2013-11-9,67.0,52.5,43.0,41.0,37.7,34.0,86,59,35,0.00,40.00,0,-999,0,0.00
2013-11-10,61.0,48.0,36.0,37.0,29.9,22.0,89,54,24,0.00,40.00,0,-999,0,0.00
2013-11-11,67.0,51.5,36.0,48.0,35.7,28.0,93,57,34,0.00,40.00,0,-999,0,0.01
2013-11-12,37.0,30.9,20.0,33.0,16.5,9.0,92,58,33,0.00,40.00,0,-999,0,0.01
2013-11-13,46.0,31.2,15.0,19.0,14.0,11.0,88,55,24,0.00,40.00,0,-999,0,0.00
2013-11-14,56.0,42.7,29.0,23.0,19.7,15.0,61,41,23,0.00,40.00,0,-999,0,0.00
2013-11-15,54.0,47.5,43.0,43.0,31.6,23.0,84,55,40,0.00,40.00,0,-999,0,0.00
2013-11-16,64.0,56.5,50.0,62.0,53.0,45.0,94,89,82,0.00,40.00,0,-999,0,0.11
2013-11-17,76.0,65.4,53.0,64.0,47.5,16.0,93,62,17,0.00,40.00,0,-999,0,0.19
2013-11-18,58.0,47.3,33.0,36.0,27.7,19.0,85,50,23,0.00,40.00,0,-999,0,0.08
2013-11-19,52.0,38.4,28.0,29.0,25.3,22.0,89,62,36,0.00,40.00,0,-999,0,0.00
2013-11-20,50.0,41.7,28.0,38.0,29.7,24.0,83,63,43,0.00,40.00,0,-999,0,0.00
2013-11-21,51.0,49.0,46.0,50.0,46.3,37.0,99,91,62,0.00,40.00,0,-999,0,0.98
2013-11-22,51.0,39.3,34.0,51.0,37.5,30.0,99,93,84,0.00,40.00,0,-999,0,0.02
2013-11-23,39.0,30.4,19.0,30.0,17.4,5.0,85,60,35,0.00,40.00,0,-999,0,0.00
2013-11-24,30.0,21.8,13.0,12.0,7.7,4.0,78,56,33,0.00,40.00,0,-999,0,0.00
2013-11-25,34.0,30.2,26.0,22.0,15.5,12.0,68,54,44,0.00,40.00,0,-999,0,0.00
2013-11-26,44.0,33.8,24.0,27.0,21.0,9.0,73,59,47,0.00,40.00,0,-999,0,0.00
2013-11-27,31.0,22.9,17.0,10.0,6.8,4.0,71,51,32,0.00,40.00,0,-999,0,0.00
2013-11-28,51.0,32.7,16.0,23.0,15.8,8.0,73,52,31,0.00,40.00,0,-999,0,0.00
2013-11-29,51.0,33.8,20.0,29.0,23.1,17.0,88,68,37,0.00,40.00,0,-999,0,0.00
2013-11-30,56.0,42.8,31.0,35.0,31.1,26.0,82,65,40,0.00,40.00,0,-999,0,0.00
2013-12-1,62.0,48.4,40.0,43.0,39.2,35.0,97,72,45,0.00,40.00,0,-999,0,0.00
2013-12-2,61.0,46.9,34.0,47.0,41.7,34.0,99,85,54,0.00,40.00,0,-999,0,0.00
2013-12-3,54.0,51.3,49.0,52.0,50.3,49.0,100,96,88,0.00,40.00,0,-999,0,0.00
2013-12-4,64.0,57.3,47.0,56.0,53.0,41.0,100,86,68,0.00,40.00,0,-999,0,0.00
2013-12-5,46.0,28.2,21.0,41.0,23.6,19.0,91,83,72,0.00,40.00,0,-999,0,0.00
2013-12-6,21.0,18.4,15.0,18.0,14.4,8.0,90,84,74,0.00,40.00,0,-999,0,0.00
2013-12-7,20.0,13.5,6.0,7.0,4.1,0.0,77,66,50,0.00,40.00,0,-999,0,0.00
2013-12-8,26.0,22.0,18.0,23.0,17.5,8.0,93,83,64,0.00,40.00,0,-999,0,0.00
2013-12-9,28.0,25.3,20.0,24.0,16.0,10.0,87,68,49,0.00,40.00,0,-999,0,0.01
2013-12-10,39.0,26.3,16.0,17.0,12.5,9.0,88,59,33,0.00,40.00,0,-999,0,0.14
2013-12-11,35.0,24.9,13.0,20.0,13.9,4.0,91,64,44,0.00,40.00,0,-999,0,0.12
2013-12-12,38.0,21.0,3.0,13.0,6.9,-2.0,83,56,34,0.00,40.00,0,-999,0,0.04
2013-12-13,34.0,29.4,24.0,31.0,21.4,14.0,95,73,57,0.00,40.00,0,-999,0,0.01
2013-12-14,35.0,31.9,28.0,32.0,29.7,24.0,98,91,85,0.00,40.00,0,-999,0,0.43
2013-12-15,39.0,30.7,24.0,26.0,23.5,20.0,87,75,59,0.00,40.00,0,-999,0,0.04
2013-12-16,60.0,41.9,32.0,31.0,28.3,25.0,80,61,32,0.00,40.00,0,-999,0,0.01
2013-12-17,47.0,36.5,27.0,28.0,25.4,22.0,86,65,42,0.00,40.00,0,-999,0,0.00
2013-12-18,48.0,37.1,22.0,37.0,25.3,18.0,91,65,43,0.00,40.00,0,-999,0,0.00
2013-12-19,56.0,49.5,43.0,48.0,43.3,38.0,86,79,68,0.00,40.00,0,-999,0,0.00
2013-12-20,66.0,55.2,40.0,58.0,51.2,39.0,95,87,74,0.00,40.00,0,-999,0,0.13
2013-12-21,39.0,35.1,32.0,38.0,33.9,31.0,96,95,93,0.00,40.00,0,-999,0,2.27
2013-12-22,39.0,33.9,28.0,37.0,29.8,24.0,98,85,72,0.00,40.00,0,-999,0,0.02
2013-12-23,31.0,24.6,17.0,23.0,15.2,9.0,85,68,49,0.00,40.00,0,-999,0,0.00
2013-12-24,27.0,16.7,7.0,11.0,3.5,-2.0,78,58,32,0.00,40.00,0,-999,0,0.00
2013-12-25,39.0,29.8,19.0,28.0,20.4,11.0,81,68,60,0.00,40.00,0,-999,0,0.00
2013-12-26,50.0,34.9,22.0,29.0,24.0,17.0,94,69,28,0.00,40.00,0,-999,0,0.00
2013-12-27,58.0,40.7,25.0,30.0,26.8,22.0,90,62,29,0.00,40.00,9,-659,14,0.00
2013-12-28,54.0,40.8,29.0,31.0,26.3,-99.9,83,60,34,0.00,40.00,12,6,17,0.00
2013-12-29,42.0,32.5,21.0,32.0,24.6,13.0,82,73,61,0.00,40.00,13,8,24,0.02
2013-12-30,31.0,21.4,12.0,12.0,5.1,-1.0,73,50,30,0.00,40.00,9,4,20,0.00
2013-12-31,49.0,34.2,24.0,25.0,16.5,9.0,66,50,26,0.00,40.00,15,8,23,0.00
2014-1-1,43.0,36.1,29.0,34.0,27.0,25.0,93,70,51,0.00,40.00,9,6,16,0.02
2014-1-2,30.0,19.8,12.0,28.0,12.4,5.0,93,73,53,0.00,40.00,15,10,25,0.04